Time;durP1;ratioP1;P1;durP2;ratioP2;P2;SDS_P1;SDS_P2;PMS_P1;PMS_P2;Temp;Humidity;BMP_temperature;BMP_pressure;BME280_temperature;BME280_humidity;BME280_pressure;Samples;Min_cycle;Max_cycle;Signal;HPM_P1;HPM_P2
2022/11/23 00:01:28;;;;;;;44.13;21.23;;;;;;;;;;5055686;28;20200;-40
2022/11/23 00:03:57;;;;;;;45.80;21.77;;;;;;;;;;5056094;28;20293;-40
2022/11/23 00:06:25;;;;;;;45.47;21.53;;;;;;;;;;5055537;28;20633;-40
2022/11/23 00:08:53;;;;;;;45.13;21.43;;;;;;;;;;5055671;28;20236;-40
2022/11/23 00:11:21;;;;;;;43.07;20.37;;;;;;;;;;5055361;28;20647;-40
2022/11/23 00:13:48;;;;;;;43.23;19.77;;;;;;;;;;5055671;28;20216;-40
2022/11/23 00:16:26;;;;;;;42.77;20.43;;;;;;;;;;5055718;28;20575;-40
2022/11/23 00:18:58;;;;;;;42.77;20.43;;;;;;;;;;5055544;28;20617;-40
2022/11/23 00:21:27;;;;;;;45.97;20.13;;;;;;;;;;5055302;28;20286;-41
2022/11/23 00:23:54;;;;;;;41.23;19.83;;;;;;;;;;5055386;28;20200;-41
2022/11/23 00:26:21;;;;;;;40.07;19.67;;;;;;;;;;5055649;28;20278;-41
2022/11/23 00:28:48;;;;;;;42.50;20.83;;;;;;;;;;5055208;28;20215;-40
2022/11/23 00:31:17;;;;;;;43.37;20.73;;;;;;;;;;5054591;28;20568;-40
2022/11/23 00:33:49;;;;;;;40.97;20.13;;;;;;;;;;5055431;28;20243;-40
2022/11/23 00:36:17;;;;;;;39.83;19.37;;;;;;;;;;5055055;28;20261;-40
2022/11/23 00:38:44;;;;;;;39.57;19.73;;;;;;;;;;5054102;28;20204;-41
2022/11/23 00:41:13;;;;;;;41.03;20.33;;;;;;;;;;5054188;28;20208;-40
2022/11/23 00:43:42;;;;;;;42.90;20.60;;;;;;;;;;5054979;28;20211;-40
2022/11/23 00:46:27;;;;;;;40.53;20.63;;;;;;;;;;5054300;28;20290;-40
2022/11/23 00:48:56;;;;;;;42.10;20.23;;;;;;;;;;5054660;28;20196;-41
2022/11/23 00:51:26;;;;;;;46.43;21.83;;;;;;;;;;5054795;28;20625;-40
2022/11/23 00:53:54;;;;;;;47.00;20.53;;;;;;;;;;5054809;28;20200;-40
2022/11/23 00:56:23;;;;;;;43.50;21.03;;;;;;;;;;5054483;28;20230;-40
2022/11/23 00:58:52;;;;;;;47.83;21.40;;;;;;;;;;5054872;28;20227;-41
2022/11/23 01:01:23;;;;;;;42.67;21.00;;;;;;;;;;5053819;28;20203;-40
2022/11/23 01:03:54;;;;;;;46.13;21.23;;;;;;;;;;5053892;28;20257;-40
2022/11/23 01:06:26;;;;;;;46.23;20.77;;;;;;;;;;5054680;28;20210;-42
2022/11/23 01:08:56;;;;;;;49.60;21.90;;;;;;;;;;5054137;28;20236;-40
2022/11/23 01:11:24;;;;;;;49.43;20.90;;;;;;;;;;5054618;28;20222;-40
2022/11/23 01:13:53;;;;;;;45.57;22.07;;;;;;;;;;5054787;28;20214;-40
2022/11/23 01:16:23;;;;;;;50.73;20.83;;;;;;;;;;5037028;28;20247;-41
2022/11/23 01:18:52;;;;;;;43.97;20.50;;;;;;;;;;5055244;28;20196;-40
2022/11/23 01:21:21;;;;;;;41.80;20.43;;;;;;;;;;5054088;28;20265;-40
2022/11/23 01:23:49;;;;;;;48.60;20.47;;;;;;;;;;5054655;28;20520;-40
2022/11/23 01:26:16;;;;;;;44.20;19.87;;;;;;;;;;5053557;28;20231;-40
2022/11/23 01:28:43;;;;;;;44.87;21.33;;;;;;;;;;5048007;28;20200;-40
2022/11/23 01:31:18;;;;;;;42.30;19.03;;;;;;;;;;5033999;28;20197;-41
2022/11/23 01:33:46;;;;;;;50.80;19.83;;;;;;;;;;5035328;28;20196;-40
2022/11/23 01:36:15;;;;;;;68.03;19.63;;;;;;;;;;5033562;28;20618;-40
2022/11/23 01:38:43;;;;;;;47.00;19.73;;;;;;;;;;5034653;28;20204;-40
2022/11/23 01:41:32;;;;;;;46.40;18.67;;;;;;;;;;5034478;28;20712;-40
2022/11/23 01:43:59;;;;;;;45.70;19.07;;;;;;;;;;5034962;28;20212;-40
2022/11/23 01:46:26;;;;;;;51.90;18.97;;;;;;;;;;5034614;28;20197;-40
2022/11/23 01:48:57;;;;;;;49.30;20.03;;;;;;;;;;5034317;28;20204;-40
2022/11/23 01:51:31;;;;;;;43.10;18.60;;;;;;;;;;5034595;28;20209;-40
2022/11/23 01:54:01;;;;;;;62.17;18.87;;;;;;;;;;5033451;28;20618;-40
2022/11/23 01:56:33;;;;;;;39.67;17.87;;;;;;;;;;5033773;28;20251;-40
2022/11/23 01:59:04;;;;;;;42.80;18.27;;;;;;;;;;5024811;28;20192;-41
2022/11/23 02:01:30;;;;;;;45.90;18.17;;;;;;;;;;5053571;28;20291;-40
2022/11/23 02:04:00;;;;;;;47.93;17.00;;;;;;;;;;5053211;28;20503;-40
2022/11/23 02:06:27;;;;;;;70.37;19.33;;;;;;;;;;5053537;28;20556;-43
2022/11/23 02:08:54;;;;;;;50.47;17.43;;;;;;;;;;5053931;28;20668;-41
2022/11/23 02:11:21;;;;;;;37.93;15.47;;;;;;;;;;5040255;28;20283;-41
2022/11/23 02:13:49;;;;;;;47.23;16.30;;;;;;;;;;5057590;28;20676;-41
2022/11/23 02:16:17;;;;;;;45.33;16.77;;;;;;;;;;5057819;28;20258;-42
2022/11/23 02:18:46;;;;;;;44.50;15.27;;;;;;;;;;5057000;28;20266;-40
2022/11/23 02:21:13;;;;;;;38.90;15.77;;;;;;;;;;5057281;28;20200;-40
2022/11/23 02:24:24;;;;;;;50.60;17.33;;;;;;;;;;5041203;28;20226;-40
2022/11/23 02:26:51;;;;;;;36.97;15.80;;;;;;;;;;5055954;28;20208;-42
2022/11/23 02:29:22;;;;;;;36.57;15.87;;;;;;;;;;5056673;28;20215;-40
2022/11/23 02:31:50;;;;;;;37.23;14.83;;;;;;;;;;5040319;28;20539;-41
2022/11/23 02:34:18;;;;;;;34.20;14.37;;;;;;;;;;5057382;28;20196;-40
2022/11/23 02:36:54;;;;;;;39.87;16.70;;;;;;;;;;5056359;28;20283;-40
2022/11/23 02:39:26;;;;;;;42.47;16.63;;;;;;;;;;5057433;28;20218;-42
2022/11/23 02:41:54;;;;;;;40.10;15.10;;;;;;;;;;5057709;28;20306;-41
2022/11/23 02:44:40;;;;;;;47.20;17.17;;;;;;;;;;5057019;28;20192;-41
2022/11/23 02:47:08;;;;;;;41.07;13.70;;;;;;;;;;5057391;28;20200;-40
2022/11/23 02:49:41;;;;;;;29.77;13.63;;;;;;;;;;5057273;28;20278;-40
2022/11/23 02:52:08;;;;;;;32.97;15.03;;;;;;;;;;5057396;28;20200;-40
2022/11/23 02:54:35;;;;;;;37.57;15.90;;;;;;;;;;5056938;28;20204;-41
2022/11/23 02:57:03;;;;;;;46.57;15.90;;;;;;;;;;5056136;28;20216;-40
2022/11/23 02:59:32;;;;;;;44.37;16.93;;;;;;;;;;5056098;28;20199;-40
2022/11/23 03:02:01;;;;;;;41.70;15.53;;;;;;;;;;5039818;28;20633;-43
2022/11/23 03:04:29;;;;;;;41.57;16.53;;;;;;;;;;5056942;28;20230;-41
2022/11/23 03:06:57;;;;;;;35.30;14.93;;;;;;;;;;5056730;28;20652;-40
2022/11/23 03:09:25;;;;;;;40.37;15.20;;;;;;;;;;5056885;28;20263;-40
2022/11/23 03:11:53;;;;;;;42.70;15.50;;;;;;;;;;5056064;28;20210;-40
2022/11/23 03:14:20;;;;;;;34.40;15.47;;;;;;;;;;5055858;28;20273;-40
2022/11/23 03:16:56;;;;;;;36.87;15.50;;;;;;;;;;5057030;28;20187;-40
2022/11/23 03:19:23;;;;;;;39.00;14.77;;;;;;;;;;5056485;28;20199;-40
2022/11/23 03:21:51;;;;;;;50.87;16.53;;;;;;;;;;5055092;28;20204;-40
2022/11/23 03:24:18;;;;;;;38.50;14.20;;;;;;;;;;5055833;28;20215;-40
2022/11/23 03:26:46;;;;;;;39.90;14.83;;;;;;;;;;5055590;28;20224;-40
2022/11/23 03:29:18;;;;;;;37.10;15.63;;;;;;;;;;5055626;28;20204;-40
2022/11/23 03:31:45;;;;;;;39.10;16.97;;;;;;;;;;5055575;28;20291;-40
2022/11/23 03:34:14;;;;;;;49.77;17.07;;;;;;;;;;5055454;28;20218;-41
2022/11/23 03:36:43;;;;;;;44.57;19.77;;;;;;;;;;5055784;28;20581;-40
2022/11/23 03:39:10;;;;;;;40.37;17.90;;;;;;;;;;5055488;28;20203;-40
2022/11/23 03:41:49;;;;;;;40.93;17.37;;;;;;;;;;5056335;28;20265;-40
2022/11/23 03:44:18;;;;;;;41.57;18.33;;;;;;;;;;5055682;28;20215;-40
2022/11/23 03:46:45;;;;;;;46.40;18.00;;;;;;;;;;5055325;28;20346;-41
2022/11/23 03:49:12;;;;;;;41.17;17.97;;;;;;;;;;5055065;28;20226;-40
2022/11/23 03:51:39;;;;;;;38.80;18.27;;;;;;;;;;5055506;28;20283;-40
2022/11/23 03:54:07;;;;;;;42.63;17.00;;;;;;;;;;5054889;28;20212;-40
2022/11/23 03:56:34;;;;;;;51.10;18.60;;;;;;;;;;5055114;28;20200;-42
2022/11/23 03:59:01;;;;;;;38.83;17.17;;;;;;;;;;5055104;28;20534;-41
2022/11/23 04:01:28;;;;;;;48.17;18.77;;;;;;;;;;5055067;28;20200;-40
2022/11/23 04:04:00;;;;;;;44.07;19.20;;;;;;;;;;5055048;28;20549;-40
2022/11/23 04:06:46;;;;;;;45.10;18.60;;;;;;;;;;5055762;28;20226;-40
2022/11/23 04:09:17;;;;;;;39.47;16.93;;;;;;;;;;5055228;28;20236;-40
2022/11/23 04:11:59;;;;;;;39.83;16.53;;;;;;;;;;5055019;28;20221;-40
2022/11/23 04:14:26;;;;;;;50.33;17.53;;;;;;;;;;5055564;28;20516;-41
2022/11/23 04:16:53;;;;;;;44.90;16.10;;;;;;;;;;5054832;28;20242;-40
2022/11/23 04:19:21;;;;;;;53.80;21.00;;;;;;;;;;5054439;28;20269;-40
2022/11/23 04:21:48;;;;;;;59.67;28.90;;;;;;;;;;5055511;28;20204;-40
2022/11/23 04:24:15;;;;;;;43.70;17.50;;;;;;;;;;5054736;28;20196;-40
2022/11/23 04:26:42;;;;;;;40.73;17.30;;;;;;;;;;5054293;28;20602;-40
2022/11/23 04:29:10;;;;;;;44.43;17.33;;;;;;;;;;5038197;28;20550;-40
2022/11/23 04:31:42;;;;;;;44.10;17.50;;;;;;;;;;5054609;28;20189;-40
2022/11/23 04:34:13;;;;;;;48.57;17.13;;;;;;;;;;5053905;28;20219;-40
2022/11/23 04:36:41;;;;;;;46.07;19.67;;;;;;;;;;5021610;28;20630;-42
2022/11/23 04:39:11;;;;;;;50.17;19.07;;;;;;;;;;5054601;28;20510;-40
2022/11/23 04:41:56;;;;;;;45.60;18.67;;;;;;;;;;5055263;28;20200;-40
2022/11/23 04:44:23;;;;;;;44.13;18.43;;;;;;;;;;5054567;28;20653;-40
2022/11/23 04:46:56;;;;;;;42.33;16.77;;;;;;;;;;5054741;28;20238;-40
2022/11/23 04:49:24;;;;;;;40.93;17.97;;;;;;;;;;5054356;28;20208;-40
2022/11/23 04:51:53;;;;;;;32.83;15.60;;;;;;;;;;5053659;28;20519;-42
2022/11/23 04:54:25;;;;;;;43.30;16.43;;;;;;;;;;5049249;28;20517;-41
2022/11/23 04:56:56;;;;;;;40.83;15.83;;;;;;;;;;5044945;28;20250;-41
2022/11/23 04:59:24;;;;;;;36.77;16.13;;;;;;;;;;5039207;28;20680;-45
2022/11/23 05:01:51;;;;;;;42.47;16.03;;;;;;;;;;5068483;28;20299;-44
2022/11/23 05:04:36;;;;;;;35.90;15.30;;;;;;;;;;5051685;28;20224;-41
2022/11/23 05:07:04;;;;;;;42.97;16.93;;;;;;;;;;5052638;28;20223;-40
2022/11/23 05:09:33;;;;;;;39.70;15.67;;;;;;;;;;5052464;28;20232;-41
2022/11/23 05:12:12;;;;;;;38.63;15.70;;;;;;;;;;5052688;28;20231;-40
2022/11/23 05:14:41;;;;;;;38.37;15.30;;;;;;;;;;5052091;28;20220;-40
2022/11/23 05:17:09;;;;;;;32.00;13.63;;;;;;;;;;5052787;28;20268;-40
2022/11/23 05:19:38;;;;;;;37.57;16.23;;;;;;;;;;5052509;28;20547;-41
2022/11/23 05:22:06;;;;;;;38.10;16.87;;;;;;;;;;5052650;28;20764;-40
2022/11/23 05:24:35;;;;;;;41.87;20.33;;;;;;;;;;5052991;28;20553;-40
2022/11/23 05:27:07;;;;;;;35.67;16.20;;;;;;;;;;5052365;28;20640;-40
2022/11/23 05:29:35;;;;;;;35.93;14.87;;;;;;;;;;5053291;28;20730;-40
2022/11/23 05:32:04;;;;;;;29.37;13.63;;;;;;;;;;5052178;28;20235;-40
2022/11/23 05:34:31;;;;;;;41.43;14.87;;;;;;;;;;5052908;28;20216;-40
2022/11/23 05:37:00;;;;;;;39.83;15.93;;;;;;;;;;5051972;28;20567;-42
2022/11/23 05:39:28;;;;;;;31.37;14.60;;;;;;;;;;5052632;28;20747;-41
2022/11/23 05:41:56;;;;;;;33.77;14.60;;;;;;;;;;5052284;28;20228;-42
2022/11/23 05:44:32;;;;;;;34.73;15.80;;;;;;;;;;5064253;28;20223;-40
2022/11/23 05:46:58;;;;;;;36.90;15.97;;;;;;;;;;5055854;28;20251;-42
2022/11/23 05:49:30;;;;;;;39.87;16.30;;;;;;;;;;5056254;28;20305;-40
2022/11/23 05:51:57;;;;;;;47.33;19.80;;;;;;;;;;5055792;28;20237;-41
2022/11/23 05:54:26;;;;;;;63.00;36.17;;;;;;;;;;5056609;28;20231;-41
2022/11/23 05:57:21;;;;;;;40.80;16.73;;;;;;;;;;5052788;28;20240;-40
2022/11/23 05:59:49;;;;;;;41.47;16.90;;;;;;;;;;5054510;28;20212;-41
2022/11/23 06:02:20;;;;;;;44.63;17.10;;;;;;;;;;5054702;28;20220;-41
2022/11/23 06:04:53;;;;;;;41.43;17.53;;;;;;;;;;5054509;28;20314;-41
2022/11/23 06:07:27;;;;;;;38.47;16.20;;;;;;;;;;5055788;28;20233;-42
2022/11/23 06:10:04;;;;;;;43.60;16.70;;;;;;;;;;5055842;28;20243;-41
2022/11/23 06:12:32;;;;;;;50.67;20.87;;;;;;;;;;5056487;28;20266;-41
2022/11/23 06:15:01;;;;;;;48.87;18.93;;;;;;;;;;5056861;28;20204;-42
2022/11/23 06:17:29;;;;;;;41.53;17.10;;;;;;;;;;5056631;28;20218;-40
2022/11/23 06:20:03;;;;;;;38.33;17.10;;;;;;;;;;5056425;28;20739;-40
2022/11/23 06:22:32;;;;;;;35.90;16.13;;;;;;;;;;5056616;28;20234;-42
2022/11/23 06:25:03;;;;;;;40.83;15.47;;;;;;;;;;5056777;28;20196;-40
2022/11/23 06:28:00;;;;;;;38.47;15.27;;;;;;;;;;5046080;28;20196;-41
2022/11/23 06:30:34;;;;;;;39.87;15.37;;;;;;;;;;5056708;28;20252;-40
2022/11/23 06:33:05;;;;;;;48.30;18.30;;;;;;;;;;5056432;28;20628;-43
2022/11/23 06:35:40;;;;;;;38.90;15.47;;;;;;;;;;5055057;28;20652;-41
2022/11/23 06:38:07;;;;;;;29.87;14.57;;;;;;;;;;5055421;28;20231;-41
2022/11/23 06:40:34;;;;;;;43.33;16.23;;;;;;;;;;5056634;28;20641;-44
2022/11/23 06:43:02;;;;;;;41.63;16.57;;;;;;;;;;5055601;28;20211;-40
2022/11/23 06:45:39;;;;;;;37.97;15.93;;;;;;;;;;5054685;28;20204;-43
2022/11/23 06:48:10;;;;;;;33.17;15.30;;;;;;;;;;5055790;28;20211;-40
2022/11/23 06:50:42;;;;;;;44.33;19.87;;;;;;;;;;5056758;28;20245;-40
2022/11/23 06:53:12;;;;;;;44.47;17.80;;;;;;;;;;5056396;28;20196;-40
2022/11/23 06:55:45;;;;;;;64.37;22.27;;;;;;;;;;5055640;28;20261;-42
2022/11/23 06:58:15;;;;;;;37.83;18.90;;;;;;;;;;5056017;28;20574;-40
2022/11/23 07:00:43;;;;;;;40.43;17.83;;;;;;;;;;5055712;28;20196;-40
2022/11/23 07:03:23;;;;;;;43.73;18.93;;;;;;;;;;5055283;28;20295;-40
2022/11/23 07:06:13;;;;;;;45.27;18.17;;;;;;;;;;5055028;28;20222;-40
2022/11/23 07:08:42;;;;;;;55.83;20.70;;;;;;;;;;5056775;28;20243;-40
2022/11/23 07:11:27;;;;;;;45.93;18.70;;;;;;;;;;5055650;28;20606;-41
2022/11/23 07:13:54;;;;;;;45.30;20.17;;;;;;;;;;5055299;28;20200;-40
2022/11/23 07:16:25;;;;;;;43.67;19.73;;;;;;;;;;5055480;28;20692;-40
2022/11/23 07:18:52;;;;;;;181.73;88.77;;;;;;;;;;5055707;28;20204;-40
2022/11/23 07:21:19;;;;;;;114.70;59.43;;;;;;;;;;5054947;28;20215;-40
2022/11/23 07:23:46;;;;;;;223.47;128.97;;;;;;;;;;5055886;28;20215;-40
2022/11/23 07:26:14;;;;;;;179.80;119.23;;;;;;;;;;5055183;28;20289;-41
2022/11/23 07:28:41;;;;;;;108.70;64.00;;;;;;;;;;5055484;28;20203;-40
2022/11/23 07:31:10;;;;;;;55.03;31.30;;;;;;;;;;5055196;28;20266;-41
2022/11/23 07:33:37;;;;;;;50.17;21.30;;;;;;;;;;5054793;28;20200;-40
2022/11/23 07:36:04;;;;;;;51.30;18.70;;;;;;;;;;5053644;28;20218;-41
2022/11/23 07:38:31;;;;;;;63.47;31.17;;;;;;;;;;5055099;28;20196;-40
2022/11/23 07:41:00;;;;;;;53.80;20.43;;;;;;;;;;5054984;28;20626;-43
2022/11/23 07:43:46;;;;;;;67.87;28.33;;;;;;;;;;5054596;28;20712;-40
2022/11/23 07:46:13;;;;;;;86.77;31.77;;;;;;;;;;5038350;28;20234;-43
2022/11/23 07:48:39;;;;;;;104.03;38.77;;;;;;;;;;5055926;28;20631;-40
2022/11/23 07:51:08;;;;;;;89.43;35.00;;;;;;;;;;5055773;28;20552;-41
2022/11/23 07:53:35;;;;;;;177.87;74.77;;;;;;;;;;5055699;28;20647;-42
2022/11/23 07:56:02;;;;;;;249.63;110.07;;;;;;;;;;5056328;28;20220;-40
2022/11/23 07:58:31;;;;;;;149.83;65.90;;;;;;;;;;5054571;28;20204;-40
2022/11/23 08:00:59;;;;;;;80.53;34.60;;;;;;;;;;5054710;28;20196;-40
2022/11/23 08:03:25;;;;;;;65.23;30.20;;;;;;;;;;5054322;28;20226;-40
2022/11/23 08:05:55;;;;;;;66.43;28.77;;;;;;;;;;5053615;28;20621;-41
2022/11/23 08:08:22;;;;;;;63.47;26.20;;;;;;;;;;5053816;28;20236;-40
2022/11/23 08:10:49;;;;;;;71.63;32.40;;;;;;;;;;5054237;28;20218;-40
2022/11/23 08:13:21;;;;;;;53.57;24.47;;;;;;;;;;5055344;28;20199;-40
2022/11/23 08:15:49;;;;;;;68.70;31.30;;;;;;;;;;5053828;28;20208;-45
2022/11/23 08:18:22;;;;;;;89.83;42.90;;;;;;;;;;5053659;28;20258;-44
2022/11/23 08:20:49;;;;;;;79.03;37.70;;;;;;;;;;5053536;28;20707;-40
2022/11/23 08:23:16;;;;;;;77.90;37.43;;;;;;;;;;5055512;28;20210;-40
2022/11/23 08:25:43;;;;;;;64.57;26.30;;;;;;;;;;5054307;28;20199;-44
2022/11/23 08:28:10;;;;;;;64.57;26.57;;;;;;;;;;5055117;28;20235;-40
2022/11/23 08:30:38;;;;;;;61.67;27.70;;;;;;;;;;5055641;28;20212;-40
2022/11/23 08:33:06;;;;;;;67.67;29.23;;;;;;;;;;5055064;28;20227;-40
2022/11/23 08:35:35;;;;;;;51.43;24.87;;;;;;;;;;5054054;28;20564;-43
2022/11/23 08:38:07;;;;;;;50.87;23.50;;;;;;;;;;5053855;28;20330;-40
2022/11/23 08:40:35;;;;;;;57.47;26.63;;;;;;;;;;5055286;28;20283;-42
2022/11/23 08:43:02;;;;;;;62.60;27.60;;;;;;;;;;5054057;28;20641;-40
2022/11/23 08:45:29;;;;;;;81.10;35.37;;;;;;;;;;5054909;28;20242;-43
2022/11/23 08:48:00;;;;;;;115.13;44.43;;;;;;;;;;5052829;28;20230;-41
2022/11/23 08:50:28;;;;;;;125.57;45.17;;;;;;;;;;5053879;28;20231;-40
2022/11/23 08:52:56;;;;;;;91.63;35.40;;;;;;;;;;5054653;28;20200;-40
2022/11/23 08:55:25;;;;;;;104.53;46.73;;;;;;;;;;5054833;28;20273;-40
2022/11/23 08:57:58;;;;;;;82.60;38.67;;;;;;;;;;5054975;28;20326;-40
2022/11/23 09:00:26;;;;;;;106.43;43.43;;;;;;;;;;5054025;28;20200;-44
2022/11/23 09:02:53;;;;;;;109.00;46.97;;;;;;;;;;5053378;28;20188;-41
2022/11/23 09:05:20;;;;;;;158.17;66.93;;;;;;;;;;5053105;28;20290;-40
2022/11/23 09:07:47;;;;;;;70.03;32.30;;;;;;;;;;5053096;28;20672;-41
2022/11/23 09:10:15;;;;;;;72.00;31.30;;;;;;;;;;5054595;28;20243;-40
2022/11/23 09:12:46;;;;;;;112.30;43.67;;;;;;;;;;5054451;28;20199;-40
2022/11/23 09:15:13;;;;;;;129.40;41.60;;;;;;;;;;5054150;28;20233;-40
2022/11/23 09:17:40;;;;;;;182.60;53.00;;;;;;;;;;5053456;28;20572;-40
2022/11/23 09:20:09;;;;;;;114.60;45.73;;;;;;;;;;5058214;28;20203;-40
2022/11/23 09:22:35;;;;;;;97.60;39.43;;;;;;;;;;5058575;28;20223;-41
2022/11/23 09:25:03;;;;;;;61.43;27.37;;;;;;;;;;5057816;28;20204;-42
2022/11/23 09:27:30;;;;;;;43.50;18.27;;;;;;;;;;5057365;28;20703;-41
2022/11/23 09:29:57;;;;;;;40.37;19.07;;;;;;;;;;5058475;28;20268;-42
2022/11/23 09:32:24;;;;;;;36.53;17.10;;;;;;;;;;5058737;28;20195;-40
2022/11/23 09:34:51;;;;;;;40.80;18.13;;;;;;;;;;5058589;28;20200;-40
2022/11/23 09:37:18;;;;;;;41.23;18.33;;;;;;;;;;5057751;28;20273;-45
2022/11/23 09:39:45;;;;;;;39.77;17.23;;;;;;;;;;5057914;28;20683;-42
2022/11/23 09:42:43;;;;;;;73.87;33.60;;;;;;;;;;5057042;28;20200;-41
2022/11/23 09:45:16;;;;;;;58.07;27.40;;;;;;;;;;5056618;28;20265;-40
2022/11/23 09:48:14;;;;;;;39.83;17.80;;;;;;;;;;5057194;28;20308;-42
2022/11/23 09:50:46;;;;;;;39.10;17.83;;;;;;;;;;5053204;28;20509;-40
2022/11/23 09:53:19;;;;;;;53.90;23.73;;;;;;;;;;5058944;28;20208;-40
2022/11/23 09:55:49;;;;;;;34.63;17.80;;;;;;;;;;5057919;28;20577;-40
2022/11/23 09:58:18;;;;;;;44.13;18.97;;;;;;;;;;5056788;28;20211;-41
2022/11/23 10:00:59;;;;;;;45.97;21.67;;;;;;;;;;5055849;28;20226;-41
2022/11/23 10:03:27;;;;;;;51.60;23.70;;;;;;;;;;5058240;28;20271;-40
2022/11/23 10:06:05;;;;;;;53.27;23.40;;;;;;;;;;5057020;28;20234;-40
2022/11/23 10:08:32;;;;;;;36.83;16.53;;;;;;;;;;5056499;28;21411;-41
2022/11/23 10:11:11;;;;;;;34.17;16.00;;;;;;;;;;5056718;28;20176;-41
2022/11/23 10:13:59;;;;;;;36.50;17.60;;;;;;;;;;5055383;28;20242;-41
2022/11/23 10:16:36;;;;;;;34.53;16.30;;;;;;;;;;5056787;28;20204;-40
2022/11/23 10:19:49;;;;;;;35.87;16.20;;;;;;;;;;5057591;28;20269;-40
2022/11/23 10:22:30;;;;;;;36.13;16.20;;;;;;;;;;5033891;28;20262;-40
2022/11/23 10:24:59;;;;;;;40.07;17.90;;;;;;;;;;5018349;28;20299;-42
2022/11/23 10:27:28;;;;;;;44.90;19.10;;;;;;;;;;5035145;28;20232;-40
2022/11/23 10:29:57;;;;;;;42.93;19.70;;;;;;;;;;5035743;28;20228;-40
2022/11/23 10:33:00;;;;;;;39.40;18.33;;;;;;;;;;5035423;28;20208;-41
2022/11/23 10:35:32;;;;;;;39.33;17.63;;;;;;;;;;5002162;28;20646;-43
2022/11/23 10:38:11;;;;;;;38.90;18.47;;;;;;;;;;5034525;28;20303;-40
2022/11/23 10:40:57;;;;;;;47.23;19.33;;;;;;;;;;5035519;28;20533;-43
2022/11/23 10:43:27;;;;;;;37.50;16.17;;;;;;;;;;5018585;28;20331;-40
2022/11/23 10:46:22;;;;;;;36.93;17.23;;;;;;;;;;5035382;28;20284;-41
2022/11/23 10:48:50;;;;;;;40.97;17.67;;;;;;;;;;5033647;28;20248;-40
2022/11/23 10:51:29;;;;;;;39.30;17.93;;;;;;;;;;5035273;28;20323;-40
2022/11/23 10:54:01;;;;;;;38.87;17.07;;;;;;;;;;5019112;28;20247;-40
2022/11/23 10:56:32;;;;;;;36.13;17.13;;;;;;;;;;5035330;28;20215;-41
2022/11/23 10:58:59;;;;;;;44.43;17.70;;;;;;;;;;5054831;28;20211;-40
2022/11/23 11:01:28;;;;;;;36.40;18.17;;;;;;;;;;5055116;28;20224;-44
2022/11/23 11:04:01;;;;;;;38.40;17.33;;;;;;;;;;5056162;28;20200;-41
2022/11/23 11:06:31;;;;;;;34.23;15.97;;;;;;;;;;5057255;28;20274;-40
2022/11/23 11:09:03;;;;;;;33.23;15.13;;;;;;;;;;5057010;28;20247;-42
2022/11/23 11:11:38;;;;;;;31.50;15.87;;;;;;;;;;5055866;28;20188;-40
2022/11/23 11:14:22;;;;;;;41.10;18.40;;;;;;;;;;5057041;28;20269;-40
2022/11/23 11:16:56;;;;;;;33.33;16.23;;;;;;;;;;5055094;28;20534;-41
2022/11/23 11:19:34;;;;;;;30.80;15.33;;;;;;;;;;5056831;28;20279;-41
2022/11/23 11:22:23;;;;;;;42.67;19.30;;;;;;;;;;5055101;28;20207;-41
2022/11/23 11:24:52;;;;;;;50.50;20.57;;;;;;;;;;5053756;28;20524;-42
2022/11/23 11:27:20;;;;;;;39.97;17.80;;;;;;;;;;5054732;28;20231;-43
2022/11/23 11:29:49;;;;;;;36.40;16.93;;;;;;;;;;5055211;28;20207;-40
2022/11/23 11:32:28;;;;;;;43.93;19.27;;;;;;;;;;5055441;28;20200;-40
2022/11/23 11:35:03;;;;;;;40.87;19.73;;;;;;;;;;5056367;28;20519;-40
2022/11/23 11:37:41;;;;;;;39.27;19.47;;;;;;;;;;5055972;28;20208;-40
2022/11/23 11:40:22;;;;;;;39.87;18.33;;;;;;;;;;5055466;28;20196;-40
2022/11/23 11:42:53;;;;;;;41.17;19.00;;;;;;;;;;5053255;28;20256;-41
2022/11/23 11:45:27;;;;;;;38.07;17.00;;;;;;;;;;5054224;28;20208;-40
2022/11/23 11:48:06;;;;;;;89.27;30.63;;;;;;;;;;5055220;28;20236;-40
2022/11/23 11:50:39;;;;;;;151.43;45.87;;;;;;;;;;5054612;28;20214;-41
2022/11/23 11:53:19;;;;;;;82.30;28.43;;;;;;;;;;5054284;28;20199;-40
2022/11/23 11:55:52;;;;;;;107.30;33.10;;;;;;;;;;5055628;28;20590;-40
2022/11/23 11:58:22;;;;;;;183.40;54.80;;;;;;;;;;5053927;28;20207;-41
2022/11/23 12:00:52;;;;;;;74.20;29.07;;;;;;;;;;5053134;28;20219;-42
2022/11/23 12:03:49;;;;;;;126.23;43.03;;;;;;;;;;5053414;28;20196;-41
2022/11/23 12:06:21;;;;;;;95.27;31.17;;;;;;;;;;5055011;28;20200;-40
2022/11/23 12:09:02;;;;;;;330.43;83.00;;;;;;;;;;5053054;28;20672;-40
2022/11/23 12:11:29;;;;;;;62.63;25.27;;;;;;;;;;5050975;28;20196;-43
2022/11/23 12:14:00;;;;;;;35.37;17.83;;;;;;;;;;5054721;28;20207;-40
2022/11/23 12:16:50;;;;;;;33.97;17.50;;;;;;;;;;5055196;28;20618;-40
2022/11/23 12:19:54;;;;;;;34.17;16.27;;;;;;;;;;5053529;28;20204;-44
2022/11/23 12:22:44;;;;;;;62.27;22.13;;;;;;;;;;5052698;28;20653;-42
2022/11/23 12:25:21;;;;;;;43.53;18.00;;;;;;;;;;5054100;28;20180;-42
2022/11/23 12:27:58;;;;;;;42.07;19.13;;;;;;;;;;5054876;28;20255;-41
2022/11/23 12:30:34;;;;;;;38.50;17.70;;;;;;;;;;5054534;28;20522;-40
2022/11/23 12:33:07;;;;;;;39.47;18.17;;;;;;;;;;5053143;28;20606;-42
2022/11/23 12:35:56;;;;;;;43.07;18.10;;;;;;;;;;5055027;28;20212;-41
2022/11/23 12:38:30;;;;;;;45.77;18.73;;;;;;;;;;5054021;28;20214;-40
2022/11/23 12:41:23;;;;;;;39.17;16.87;;;;;;;;;;5054506;28;20192;-40
2022/11/23 12:44:01;;;;;;;40.07;16.43;;;;;;;;;;5053565;28;20234;-44
2022/11/23 12:46:31;;;;;;;39.67;16.83;;;;;;;;;;5054590;28;20199;-40
2022/11/23 12:49:11;;;;;;;44.60;19.67;;;;;;;;;;5053094;28;20571;-42
2022/11/23 12:52:04;;;;;;;42.60;18.83;;;;;;;;;;5054789;28;20192;-41
2022/11/23 12:54:50;;;;;;;36.80;17.17;;;;;;;;;;5054347;28;20636;-40
2022/11/23 12:57:21;;;;;;;44.40;19.30;;;;;;;;;;5054404;28;20210;-41
2022/11/23 12:59:52;;;;;;;42.40;18.80;;;;;;;;;;5053477;28;20291;-46
2022/11/23 13:02:50;;;;;;;50.00;18.90;;;;;;;;;;5053193;28;20203;-40
2022/11/23 13:05:42;;;;;;;87.87;32.00;;;;;;;;;;5052998;28;20599;-41
2022/11/23 13:08:33;;;;;;;53.90;21.90;;;;;;;;;;5053901;28;20737;-40
2022/11/23 13:11:38;;;;;;;49.40;21.60;;;;;;;;;;5053189;28;20235;-45
2022/11/23 13:14:18;;;;;;;44.10;20.80;;;;;;;;;;5052785;28;20220;-42
2022/11/23 13:17:16;;;;;;;42.33;18.27;;;;;;;;;;5053761;28;20215;-40
2022/11/23 13:20:02;;;;;;;49.73;22.27;;;;;;;;;;5054636;28;20200;-40
2022/11/23 13:22:30;;;;;;;40.07;19.87;;;;;;;;;;5052900;28;20203;-40
2022/11/23 13:25:06;;;;;;;40.17;18.97;;;;;;;;;;5034260;28;20235;-41
2022/11/23 13:27:45;;;;;;;40.37;18.23;;;;;;;;;;5033240;28;20248;-41
2022/11/23 13:30:36;;;;;;;39.67;18.43;;;;;;;;;;5038122;28;20262;-42
2022/11/23 13:33:24;;;;;;;38.17;18.43;;;;;;;;;;5047022;28;20231;-41
2022/11/23 13:35:59;;;;;;;41.00;19.03;;;;;;;;;;5051604;28;20691;-40
2022/11/23 13:38:41;;;;;;;37.33;18.97;;;;;;;;;;5052243;28;20243;-42
2022/11/23 13:41:33;;;;;;;45.60;19.77;;;;;;;;;;5048986;28;20221;-41
2022/11/23 13:44:20;;;;;;;40.23;18.40;;;;;;;;;;5033455;28;20666;-40
2022/11/23 13:47:14;;;;;;;48.03;21.70;;;;;;;;;;5049652;28;20228;-43
2022/11/23 13:49:52;;;;;;;43.30;19.23;;;;;;;;;;5047906;28;20335;-43
2022/11/23 13:52:22;;;;;;;41.23;21.43;;;;;;;;;;5050795;28;20219;-43
2022/11/23 13:55:19;;;;;;;44.70;19.47;;;;;;;;;;5049245;28;20243;-43
2022/11/23 13:58:23;;;;;;;41.47;18.90;;;;;;;;;;5040390;28;20239;-42
2022/11/23 14:00:51;;;;;;;46.87;19.70;;;;;;;;;;5051842;28;20305;-40
2022/11/23 14:03:41;;;;;;;45.73;19.67;;;;;;;;;;5052519;28;20877;-41
2022/11/23 14:06:34;;;;;;;40.87;19.67;;;;;;;;;;5054520;28;20224;-43
2022/11/23 14:09:21;;;;;;;43.20;19.20;;;;;;;;;;5035562;28;20685;-43
2022/11/23 14:11:56;;;;;;;44.30;19.60;;;;;;;;;;5056376;28;20216;-41
2022/11/23 14:14:30;;;;;;;49.13;20.80;;;;;;;;;;5056475;28;20223;-40
2022/11/23 14:17:03;;;;;;;53.83;21.87;;;;;;;;;;5055563;28;20232;-41
2022/11/23 14:19:48;;;;;;;47.77;20.63;;;;;;;;;;5057182;28;20222;-39
2022/11/23 14:22:24;;;;;;;46.37;21.03;;;;;;;;;;5056016;28;20227;-39
2022/11/23 14:25:10;;;;;;;45.77;20.83;;;;;;;;;;5056747;28;20212;-40
2022/11/23 14:28:24;;;;;;;39.67;17.77;;;;;;;;;;5055785;28;20601;-41
2022/11/23 14:31:05;;;;;;;40.13;18.60;;;;;;;;;;5034001;28;20747;-41
2022/11/23 14:33:45;;;;;;;45.17;20.50;;;;;;;;;;5017420;28;20322;-40
2022/11/23 14:36:21;;;;;;;40.07;17.77;;;;;;;;;;5034228;28;20277;-41
2022/11/23 14:39:00;;;;;;;44.10;19.00;;;;;;;;;;5017707;28;20335;-43
2022/11/23 14:41:31;;;;;;;45.03;20.07;;;;;;;;;;5034585;28;20236;-40
2022/11/23 14:44:00;;;;;;;40.23;18.73;;;;;;;;;;5018382;28;20228;-44
2022/11/23 14:46:27;;;;;;;34.37;15.40;;;;;;;;;;5033682;28;20266;-45
2022/11/23 14:49:06;;;;;;;41.50;18.60;;;;;;;;;;5033946;28;20243;-41
2022/11/23 14:51:34;;;;;;;37.43;18.43;;;;;;;;;;5032531;28;20597;-43